createdAt,value
2023-03-23T00:00:16.512Z,983.12
2023-03-23T00:01:18.278Z,983.11
2023-03-23T00:02:19.982Z,983.12
2023-03-23T00:03:21.752Z,983.11
2023-03-23T00:04:23.474Z,983.1
2023-03-23T00:05:25.214Z,983.08
2023-03-23T00:06:26.910Z,983.09
2023-03-23T00:07:28.644Z,983.06
2023-03-23T00:08:30.377Z,983.06
2023-03-23T00:09:32.147Z,982.99
2023-03-23T00:10:33.886Z,983.03
2023-03-23T00:11:35.596Z,983.07
2023-03-23T00:12:37.312Z,983.03
2023-03-23T00:13:39.065Z,983.03
2023-03-23T00:14:40.784Z,983.07
2023-03-23T00:15:42.645Z,983
2023-03-23T00:16:44.266Z,983.01
2023-03-23T00:17:45.986Z,983.04
2023-03-23T00:18:47.719Z,983.04
2023-03-23T00:19:49.466Z,983.04
2023-03-23T00:20:51.185Z,982.95
2023-03-23T00:21:52.938Z,982.92
2023-03-23T00:22:54.692Z,982.9
2023-03-23T00:23:56.403Z,982.94
2023-03-23T00:24:58.231Z,982.92
2023-03-23T00:25:59.910Z,982.79
2023-03-23T00:27:01.620Z,982.79
2023-03-23T00:28:03.342Z,982.73
2023-03-23T00:29:05.094Z,982.7
2023-03-23T00:30:06.844Z,982.75
2023-03-23T00:31:08.532Z,982.75
2023-03-23T00:32:10.263Z,982.74
2023-03-23T00:33:12.049Z,982.75
2023-03-23T00:34:13.828Z,982.78
2023-03-23T00:35:15.470Z,982.74
2023-03-23T00:36:17.200Z,982.77
2023-03-23T00:37:18.973Z,982.79
2023-03-23T00:38:20.699Z,982.77
2023-03-23T00:39:22.456Z,982.77
2023-03-23T00:40:24.195Z,982.78
2023-03-23T00:41:25.880Z,982.7
2023-03-23T00:42:27.685Z,982.73
2023-03-23T00:43:29.368Z,982.67
2023-03-23T00:44:31.087Z,982.66
2023-03-23T00:45:32.842Z,982.66
2023-03-23T00:46:34.544Z,982.67
2023-03-23T00:47:36.336Z,982.68
2023-03-23T00:48:38.062Z,982.69
2023-03-23T00:49:39.805Z,982.7
2023-03-23T00:50:41.506Z,982.67
2023-03-23T00:51:43.222Z,982.59
2023-03-23T00:52:45.009Z,982.57
2023-03-23T00:53:46.717Z,982.62
2023-03-23T00:54:48.473Z,982.59
2023-03-23T00:55:50.178Z,982.71
2023-03-23T00:56:51.922Z,982.7
2023-03-23T00:57:53.671Z,982.75
2023-03-23T00:58:55.428Z,982.68
2023-03-23T00:59:57.128Z,982.65
2023-03-23T01:00:58.867Z,982.65
2023-03-23T01:02:00.609Z,982.67
2023-03-23T01:03:02.346Z,982.66
2023-03-23T01:04:03.991Z,982.67
2023-03-23T01:05:05.752Z,982.69
2023-03-23T01:06:07.464Z,982.61
2023-03-23T01:07:09.229Z,982.61
2023-03-23T01:08:10.954Z,982.69
2023-03-23T01:09:12.656Z,982.69
2023-03-23T01:10:14.414Z,982.73
2023-03-23T01:11:16.133Z,982.7
2023-03-23T01:12:17.873Z,982.69
2023-03-23T01:13:19.590Z,982.71
2023-03-23T01:14:21.325Z,982.7
2023-03-23T01:15:23.118Z,982.59
2023-03-23T01:16:24.854Z,982.73
2023-03-23T01:17:26.553Z,982.75
2023-03-23T01:18:32.773Z,982.73
2023-03-23T01:19:30.040Z,982.74
2023-03-23T01:20:31.750Z,982.73
2023-03-23T01:21:33.519Z,982.71
2023-03-23T01:22:35.241Z,982.73
2023-03-23T01:23:36.993Z,982.68
2023-03-23T01:24:38.676Z,982.58
2023-03-23T01:25:40.619Z,982.6
2023-03-23T01:26:42.156Z,982.62
2023-03-23T01:27:43.888Z,982.53
2023-03-23T01:28:45.638Z,982.49
2023-03-23T01:29:47.383Z,982.46
2023-03-23T01:30:49.085Z,982.44
2023-03-23T01:31:50.817Z,982.49
2023-03-23T01:32:52.716Z,982.5
2023-03-23T01:33:54.284Z,982.53
2023-03-23T01:34:56.016Z,982.48
2023-03-23T01:35:57.795Z,982.49
2023-03-23T01:36:59.482Z,982.44
2023-03-23T01:38:01.244Z,982.37
2023-03-23T01:39:02.939Z,982.41
2023-03-23T01:40:04.711Z,982.43
2023-03-23T01:41:06.413Z,982.4
2023-03-23T01:42:08.156Z,982.42
2023-03-23T01:43:09.895Z,982.41
2023-03-23T01:44:11.667Z,982.42
2023-03-23T01:45:13.351Z,982.38
2023-03-23T01:46:15.093Z,982.37
2023-03-23T01:47:16.814Z,982.33
2023-03-23T01:48:18.555Z,982.45
2023-03-23T01:49:20.305Z,982.44
2023-03-23T01:50:22.027Z,982.39
2023-03-23T01:51:30.647Z,982.39
2023-03-23T01:52:25.620Z,982.37
2023-03-23T01:53:27.260Z,982.39
2023-03-23T01:54:28.983Z,982.4
2023-03-23T01:55:30.687Z,982.43
2023-03-23T01:56:32.427Z,982.43
2023-03-23T01:57:34.164Z,982.35
2023-03-23T01:58:35.917Z,982.28
2023-03-23T01:59:37.737Z,982.29
2023-03-23T02:00:39.444Z,982.33
2023-03-23T02:01:41.109Z,982.32
2023-03-23T02:02:42.831Z,982.28
2023-03-23T02:03:44.681Z,982.32
2023-03-23T02:04:46.332Z,982.3
2023-03-23T02:05:48.088Z,982.32
2023-03-23T02:06:49.828Z,982.33
2023-03-23T02:07:51.549Z,982.31
2023-03-23T02:08:53.241Z,982.31
2023-03-23T02:09:54.989Z,982.31
2023-03-23T02:10:56.726Z,982.28
2023-03-23T02:11:58.432Z,982.27
2023-03-23T02:13:00.216Z,982.3
2023-03-23T02:14:01.893Z,982.22
2023-03-23T02:15:03.649Z,982.25
2023-03-23T02:16:05.365Z,982.2
2023-03-23T02:17:07.126Z,982.26
2023-03-23T02:18:08.835Z,982.27
2023-03-23T02:19:10.567Z,982.29
2023-03-23T02:20:12.318Z,982.27
2023-03-23T02:21:14.101Z,982.26
2023-03-23T02:22:15.773Z,982.29
2023-03-23T02:23:17.538Z,982.3
2023-03-23T02:24:19.244Z,982.3
2023-03-23T02:25:20.972Z,982.25
2023-03-23T02:26:22.714Z,982.24
2023-03-23T02:27:24.457Z,982.3
2023-03-23T02:28:26.235Z,982.22
2023-03-23T02:29:27.927Z,982.18
2023-03-23T02:30:29.691Z,982.23
2023-03-23T02:31:31.392Z,982.26
2023-03-23T02:32:33.131Z,982.24
2023-03-23T02:33:34.841Z,982.22
2023-03-23T02:34:36.587Z,982.24
2023-03-23T02:35:38.460Z,982.22
2023-03-23T02:36:40.044Z,982.21
2023-03-23T02:37:41.781Z,982.19
2023-03-23T02:38:43.590Z,982.23
2023-03-23T02:39:45.275Z,982.18
2023-03-23T02:40:46.982Z,982.15
2023-03-23T02:41:48.749Z,982.11
2023-03-23T02:42:50.459Z,982.05
2023-03-23T02:43:52.223Z,982
2023-03-23T02:44:54.060Z,982.09
2023-03-23T02:45:55.657Z,982.04
2023-03-23T02:46:57.442Z,982.05
2023-03-23T02:47:59.108Z,982.11
2023-03-23T02:49:00.894Z,982.07
2023-03-23T02:50:02.603Z,982.03
2023-03-23T02:51:04.364Z,982.03
2023-03-23T02:52:06.160Z,982
2023-03-23T02:53:07.808Z,982.03
2023-03-23T02:54:09.526Z,981.99
2023-03-23T02:55:11.294Z,981.99
2023-03-23T02:56:13.011Z,981.96
2023-03-23T02:57:14.733Z,981.92
2023-03-23T02:58:16.482Z,981.96
2023-03-23T02:59:18.339Z,982.01
2023-03-23T03:00:19.998Z,981.98
2023-03-23T03:01:21.678Z,981.94
2023-03-23T03:02:23.418Z,981.9
2023-03-23T03:03:25.128Z,981.88
2023-03-23T03:04:26.917Z,981.92
2023-03-23T03:05:28.639Z,981.88
2023-03-23T03:06:30.338Z,981.86
2023-03-23T03:07:32.086Z,981.86
2023-03-23T03:08:33.819Z,981.86
2023-03-23T03:09:35.587Z,981.86
2023-03-23T03:10:37.308Z,981.88
2023-03-23T03:11:39.035Z,981.89
2023-03-23T03:12:40.748Z,981.87
2023-03-23T03:13:42.453Z,981.94
2023-03-23T03:14:44.183Z,981.88
2023-03-23T03:15:45.885Z,981.84
2023-03-23T03:16:47.649Z,981.84
2023-03-23T03:17:49.373Z,981.83
2023-03-23T03:18:51.103Z,981.83
2023-03-23T03:19:52.828Z,981.84
2023-03-23T03:20:54.571Z,981.88
2023-03-23T03:21:56.302Z,981.91
2023-03-23T03:22:58.040Z,981.88
2023-03-23T03:23:59.780Z,981.87
2023-03-23T03:25:01.499Z,981.89
2023-03-23T03:26:03.243Z,981.93
2023-03-23T03:27:04.980Z,981.96
2023-03-23T03:28:06.705Z,981.93
2023-03-23T03:29:08.436Z,981.94
2023-03-23T03:30:10.200Z,981.94
2023-03-23T03:31:12.020Z,981.92
2023-03-23T03:32:13.686Z,981.95
2023-03-23T03:33:15.426Z,981.93
2023-03-23T03:34:17.107Z,981.98
2023-03-23T03:35:19.309Z,981.99
2023-03-23T03:36:20.581Z,981.93
2023-03-23T03:37:22.336Z,981.96
2023-03-23T03:38:24.052Z,981.92
2023-03-23T03:39:25.829Z,981.93
2023-03-23T03:40:27.524Z,981.91
2023-03-23T03:41:29.274Z,981.96
2023-03-23T03:42:31.003Z,982.02
2023-03-23T03:43:32.743Z,982
2023-03-23T03:44:34.472Z,981.98
2023-03-23T03:45:36.194Z,982.02
2023-03-23T03:46:37.912Z,981.96
2023-03-23T03:47:39.655Z,981.9
2023-03-23T03:48:41.407Z,982.02
2023-03-23T03:49:43.175Z,981.95
2023-03-23T03:50:44.926Z,982.04
2023-03-23T03:51:46.613Z,982.02
2023-03-23T03:52:48.356Z,982.01
2023-03-23T03:53:50.072Z,982.01
2023-03-23T03:54:51.802Z,982.02
2023-03-23T03:55:53.515Z,981.97
2023-03-23T03:56:55.263Z,982.01
2023-03-23T03:57:56.987Z,981.99
2023-03-23T03:58:58.709Z,982.03
2023-03-23T04:00:00.511Z,982.06
2023-03-23T04:01:02.188Z,982.08
2023-03-23T04:02:03.928Z,982.06
2023-03-23T04:03:05.666Z,982.11
2023-03-23T04:04:07.386Z,982.1
2023-03-23T04:05:09.164Z,982.08
2023-03-23T04:06:10.857Z,982.04
2023-03-23T04:07:12.588Z,982.09
2023-03-23T04:08:14.321Z,982.06
2023-03-23T04:09:16.067Z,982.11
2023-03-23T04:10:32.605Z,982.17
2023-03-23T04:11:33.298Z,982.19
2023-03-23T04:12:21.262Z,982.23
2023-03-23T04:13:23.026Z,982.22
2023-03-23T04:14:24.734Z,982.16
2023-03-23T04:15:26.464Z,982.21
2023-03-23T04:16:28.214Z,982.15
2023-03-23T04:17:29.940Z,982.16
2023-03-23T04:18:31.686Z,982.2
2023-03-23T04:19:33.409Z,982.12
2023-03-23T04:20:35.146Z,982.07
2023-03-23T04:21:36.903Z,982.16
2023-03-23T04:22:38.604Z,982.13
2023-03-23T04:23:40.343Z,982.15
2023-03-23T04:24:56.757Z,982.21
2023-03-23T04:25:43.806Z,982.24
2023-03-23T04:26:45.543Z,982.24
2023-03-23T04:27:47.269Z,982.24
2023-03-23T04:28:49.051Z,982.28
2023-03-23T04:29:50.788Z,982.3
2023-03-23T04:30:52.493Z,982.37
2023-03-23T04:31:54.222Z,982.3
2023-03-23T04:32:55.944Z,982.31
2023-03-23T04:33:59.833Z,982.31
2023-03-23T04:35:12.931Z,982.25
2023-03-23T04:36:01.261Z,982.31
2023-03-23T04:37:02.903Z,982.23
2023-03-23T04:38:04.641Z,982.28
2023-03-23T04:39:06.369Z,982.27
2023-03-23T04:40:08.107Z,982.33
2023-03-23T04:41:09.870Z,982.26
2023-03-23T04:42:11.585Z,982.35
2023-03-23T04:43:13.293Z,982.27
2023-03-23T04:44:15.029Z,982.25
2023-03-23T04:45:16.810Z,982.27
2023-03-23T04:46:18.536Z,982.29
2023-03-23T04:47:20.267Z,982.16
2023-03-23T04:48:21.974Z,982.23
2023-03-23T04:49:23.693Z,982.18
2023-03-23T04:50:25.433Z,982.23
2023-03-23T04:51:27.171Z,982.28
2023-03-23T04:52:28.943Z,982.27
2023-03-23T04:53:30.657Z,982.27
2023-03-23T04:54:32.404Z,982.2
2023-03-23T04:55:34.119Z,982.2
2023-03-23T04:56:35.839Z,982.25
2023-03-23T04:57:37.576Z,982.26
2023-03-23T04:58:39.346Z,982.27
2023-03-23T04:59:41.098Z,982.2
2023-03-23T05:00:42.803Z,982.22
2023-03-23T05:01:44.496Z,982.16
2023-03-23T05:02:46.291Z,982.22
2023-03-23T05:03:47.989Z,982.18
2023-03-23T05:04:49.713Z,982.2
2023-03-23T05:05:51.498Z,982.21
2023-03-23T05:06:53.187Z,982.24
2023-03-23T05:07:57.738Z,982.28
2023-03-23T05:08:56.653Z,982.27
2023-03-23T05:09:58.586Z,982.29
2023-03-23T05:11:00.131Z,982.29
2023-03-23T05:12:01.891Z,982.24
2023-03-23T05:13:04.714Z,982.25
2023-03-23T05:14:05.352Z,982.24
2023-03-23T05:15:08.386Z,982.32
2023-03-23T05:16:08.747Z,982.26
2023-03-23T05:17:10.509Z,982.27
2023-03-23T05:18:12.203Z,982.25
2023-03-23T05:19:13.962Z,982.25
2023-03-23T05:20:15.687Z,982.37
2023-03-23T05:21:17.434Z,982.41
2023-03-23T05:22:19.136Z,982.43
2023-03-23T05:23:20.877Z,982.4
2023-03-23T05:24:22.696Z,982.35
2023-03-23T05:25:24.345Z,982.34
2023-03-23T05:26:26.095Z,982.43
2023-03-23T05:27:27.846Z,982.39
2023-03-23T05:28:29.531Z,982.39
2023-03-23T05:29:31.312Z,982.39
2023-03-23T05:30:33.051Z,982.35
2023-03-23T05:31:34.788Z,982.33
2023-03-23T05:32:36.532Z,982.32
2023-03-23T05:33:38.225Z,982.28
2023-03-23T05:34:40.057Z,982.33
2023-03-23T05:35:42.027Z,982.32
2023-03-23T05:36:43.478Z,982.35
2023-03-23T05:37:45.171Z,982.42
2023-03-23T05:38:46.890Z,982.46
2023-03-23T05:39:48.632Z,982.49
2023-03-23T05:40:50.399Z,982.51
2023-03-23T05:41:52.111Z,982.48
2023-03-23T05:42:53.872Z,982.49
2023-03-23T05:43:55.615Z,982.51
2023-03-23T05:44:57.285Z,982.53
2023-03-23T05:45:59.055Z,982.49
2023-03-23T05:47:00.760Z,982.55
2023-03-23T05:48:02.517Z,982.57
2023-03-23T05:49:04.246Z,982.6
2023-03-23T05:50:05.960Z,982.59
2023-03-23T05:51:07.722Z,982.64
2023-03-23T05:52:09.512Z,982.63
2023-03-23T05:53:12.601Z,982.67
2023-03-23T05:54:12.973Z,982.7
2023-03-23T05:55:14.658Z,982.74
2023-03-23T05:56:16.362Z,982.7
2023-03-23T05:57:18.113Z,982.68
2023-03-23T05:58:19.867Z,982.66
2023-03-23T05:59:21.638Z,982.64
2023-03-23T06:00:23.312Z,982.63
2023-03-23T06:01:25.050Z,982.65
2023-03-23T06:02:26.805Z,982.65
2023-03-23T06:03:28.540Z,982.62
2023-03-23T06:04:30.273Z,982.63
2023-03-23T06:05:32.032Z,982.64
2023-03-23T06:06:33.706Z,982.62
2023-03-23T06:07:35.482Z,982.62
2023-03-23T06:08:37.234Z,982.59
2023-03-23T06:09:38.969Z,982.63
2023-03-23T06:10:40.672Z,982.64
2023-03-23T06:11:42.504Z,982.58
2023-03-23T06:12:44.161Z,982.64
2023-03-23T06:13:45.855Z,982.64
2023-03-23T06:14:47.589Z,982.69
2023-03-23T06:15:49.381Z,982.68
2023-03-23T06:16:51.081Z,982.7
2023-03-23T06:17:52.800Z,982.71
2023-03-23T06:18:54.531Z,982.64
2023-03-23T06:19:56.269Z,982.74
2023-03-23T06:20:58.061Z,982.73
2023-03-23T06:21:59.726Z,982.8
2023-03-23T06:23:01.502Z,982.83
2023-03-23T06:24:03.232Z,982.84
2023-03-23T06:25:04.964Z,982.91
2023-03-23T06:26:06.695Z,982.88
2023-03-23T06:27:08.466Z,982.84
2023-03-23T06:28:10.190Z,982.77
2023-03-23T06:29:11.874Z,982.71
2023-03-23T06:30:13.593Z,982.68
2023-03-23T06:31:15.346Z,982.75
2023-03-23T06:32:17.090Z,982.8
2023-03-23T06:33:19.914Z,982.88
2023-03-23T06:34:20.528Z,982.83
2023-03-23T06:35:22.257Z,982.86
2023-03-23T06:36:24.098Z,982.88
2023-03-23T06:37:25.782Z,982.93
2023-03-23T06:38:27.472Z,982.91
2023-03-23T06:39:29.247Z,982.8
2023-03-23T06:40:30.936Z,982.82
2023-03-23T06:41:32.677Z,982.89
2023-03-23T06:42:34.474Z,982.94
2023-03-23T06:43:37.739Z,982.91
2023-03-23T06:44:37.877Z,982.97
2023-03-23T06:45:39.806Z,982.98
2023-03-23T06:46:41.353Z,982.94
2023-03-23T06:47:43.068Z,982.96
2023-03-23T06:48:44.816Z,982.9
2023-03-23T06:49:46.584Z,982.85
2023-03-23T06:50:48.267Z,982.87
2023-03-23T06:51:50.054Z,982.84
2023-03-23T06:52:51.825Z,982.87
2023-03-23T06:53:53.532Z,982.93
2023-03-23T06:54:55.235Z,982.92
2023-03-23T06:55:56.955Z,982.92
2023-03-23T06:56:58.726Z,982.89
2023-03-23T06:58:00.420Z,982.85
2023-03-23T06:59:02.196Z,982.87
2023-03-23T07:00:03.905Z,982.9
2023-03-23T07:01:05.629Z,982.87
2023-03-23T07:02:07.360Z,982.94
2023-03-23T07:03:09.150Z,982.96
2023-03-23T07:04:10.820Z,982.88
2023-03-23T07:05:12.651Z,982.92
2023-03-23T07:06:14.285Z,982.97
2023-03-23T07:07:16.025Z,982.98
2023-03-23T07:08:17.791Z,983.03
2023-03-23T07:09:19.533Z,983
2023-03-23T07:10:21.225Z,982.96
2023-03-23T07:11:22.965Z,982.89
2023-03-23T07:12:24.736Z,982.93
2023-03-23T07:13:26.434Z,982.97
2023-03-23T07:14:28.195Z,983.03
2023-03-23T07:15:29.895Z,983.04
2023-03-23T07:16:31.625Z,983.01
2023-03-23T07:17:33.361Z,983.02
2023-03-23T07:18:35.087Z,983.07
2023-03-23T07:19:36.832Z,983.05
2023-03-23T07:20:38.554Z,983.14
2023-03-23T07:21:40.290Z,983.2
2023-03-23T07:22:42.120Z,983.13
2023-03-23T07:23:43.748Z,983.19
2023-03-23T07:24:45.454Z,983.26
2023-03-23T07:25:47.233Z,983.23
2023-03-23T07:26:48.953Z,983.25
2023-03-23T07:27:50.647Z,983.19
2023-03-23T07:28:52.365Z,983.2
2023-03-23T07:29:54.093Z,983.11
2023-03-23T07:30:55.805Z,983.06
2023-03-23T07:31:57.560Z,983.09
2023-03-23T07:32:59.249Z,983.09
2023-03-23T07:34:01.062Z,983.13
2023-03-23T07:35:02.721Z,983.08
2023-03-23T07:36:04.462Z,983.18
2023-03-23T07:37:06.199Z,983.21
2023-03-23T07:38:07.888Z,983.21
2023-03-23T07:39:09.602Z,983.17
2023-03-23T07:40:11.342Z,983.24
2023-03-23T07:41:13.056Z,983.18
2023-03-23T07:42:14.785Z,983.18
2023-03-23T07:43:16.549Z,983.19
2023-03-23T07:44:18.267Z,983.21
2023-03-23T07:45:19.967Z,983.21
2023-03-23T07:46:21.706Z,983.22
2023-03-23T07:47:23.445Z,983.24
2023-03-23T07:48:25.160Z,983.28
2023-03-23T07:49:26.882Z,983.28
2023-03-23T07:50:28.625Z,983.35
2023-03-23T07:51:30.400Z,983.4
2023-03-23T07:52:32.112Z,983.4
2023-03-23T07:53:33.809Z,983.39
2023-03-23T07:54:35.587Z,983.41
2023-03-23T07:55:37.324Z,983.41
2023-03-23T07:56:39.023Z,983.42
2023-03-23T07:57:40.756Z,983.42
2023-03-23T07:58:42.481Z,983.48
2023-03-23T07:59:44.463Z,983.43
2023-03-23T08:00:46.073Z,983.43
2023-03-23T08:01:47.709Z,983.46
2023-03-23T08:02:49.448Z,983.43
2023-03-23T08:03:51.177Z,983.44
2023-03-23T08:04:52.909Z,983.43
2023-03-23T08:05:54.658Z,983.39
2023-03-23T08:06:56.359Z,983.45
2023-03-23T08:07:58.102Z,983.39
2023-03-23T08:08:59.861Z,983.45
2023-03-23T08:10:01.586Z,983.4
2023-03-23T08:11:03.306Z,983.43
2023-03-23T08:12:05.021Z,983.5
2023-03-23T08:13:06.763Z,983.48
2023-03-23T08:14:08.497Z,983.45
2023-03-23T08:15:10.228Z,983.52
2023-03-23T08:16:11.957Z,983.52
2023-03-23T08:17:13.727Z,983.56
2023-03-23T08:18:15.470Z,983.52
2023-03-23T08:19:17.174Z,983.56
2023-03-23T08:20:18.909Z,983.52
2023-03-23T08:21:20.640Z,983.56
2023-03-23T08:22:22.368Z,983.55
2023-03-23T08:23:24.137Z,983.59
2023-03-23T08:24:25.842Z,983.7
2023-03-23T08:25:27.565Z,983.75
2023-03-23T08:26:29.353Z,983.78
2023-03-23T08:27:32.548Z,983.71
2023-03-23T08:28:34.205Z,983.71
2023-03-23T08:29:36.150Z,983.72
2023-03-23T08:30:36.310Z,983.68
2023-03-23T08:31:38.048Z,983.71
2023-03-23T08:32:39.772Z,983.72
2023-03-23T08:33:41.527Z,983.72
2023-03-23T08:34:43.213Z,983.72
2023-03-23T08:35:45.052Z,983.72
2023-03-23T08:36:46.846Z,983.74
2023-03-23T08:37:48.446Z,983.7
2023-03-23T08:38:50.191Z,983.74
2023-03-23T08:39:51.945Z,983.7
2023-03-23T08:40:53.669Z,983.68
2023-03-23T08:41:55.405Z,983.67
2023-03-23T08:43:01.147Z,983.71
2023-03-23T08:43:58.850Z,983.63
2023-03-23T08:45:00.650Z,983.65
2023-03-23T08:46:02.359Z,983.69
2023-03-23T08:47:04.033Z,983.61
2023-03-23T08:48:05.840Z,983.67
2023-03-23T08:49:07.535Z,983.65
2023-03-23T08:50:09.275Z,983.67
2023-03-23T08:51:10.968Z,983.71
2023-03-23T08:52:12.719Z,983.7
2023-03-23T08:53:14.465Z,983.66
2023-03-23T08:54:16.198Z,983.71
2023-03-23T08:55:19.317Z,983.72
2023-03-23T08:56:19.654Z,983.69
2023-03-23T08:57:21.400Z,983.75
2023-03-23T08:58:23.124Z,983.79
2023-03-23T08:59:24.871Z,983.73
2023-03-23T09:00:28.747Z,983.74
2023-03-23T09:01:28.350Z,983.82
2023-03-23T09:02:30.074Z,983.79
2023-03-23T09:03:31.844Z,983.8
2023-03-23T09:04:33.566Z,983.78
2023-03-23T09:05:35.293Z,983.76
2023-03-23T09:06:37.005Z,983.87
2023-03-23T09:07:38.742Z,983.73
2023-03-23T09:08:40.468Z,983.8
2023-03-23T09:09:42.214Z,983.77
2023-03-23T09:10:43.933Z,983.73
2023-03-23T09:11:45.666Z,983.71
2023-03-23T09:12:47.393Z,983.69
2023-03-23T09:13:49.157Z,983.76
2023-03-23T09:14:50.889Z,983.81
2023-03-23T09:15:55.241Z,983.81
2023-03-23T09:16:54.379Z,983.81
2023-03-23T09:17:56.064Z,983.86
2023-03-23T09:18:57.804Z,983.82
2023-03-23T09:19:59.565Z,983.86
2023-03-23T09:21:01.258Z,983.81
2023-03-23T09:22:03.020Z,983.89
2023-03-23T09:23:04.748Z,983.86
2023-03-23T09:24:06.483Z,983.94
2023-03-23T09:25:09.228Z,983.92
2023-03-23T09:26:09.967Z,983.97
2023-03-23T09:27:11.675Z,983.85
2023-03-23T09:28:13.437Z,983.85
2023-03-23T09:29:15.145Z,983.88
2023-03-23T09:30:16.898Z,983.9
2023-03-23T09:31:19.976Z,983.87
2023-03-23T09:32:20.360Z,983.89
2023-03-23T09:33:22.121Z,983.86
2023-03-23T09:34:23.814Z,983.93
2023-03-23T09:35:25.538Z,983.93
2023-03-23T09:36:27.316Z,983.91
2023-03-23T09:37:29.053Z,983.87
2023-03-23T09:38:30.757Z,983.88
2023-03-23T09:39:32.537Z,983.94
2023-03-23T09:40:34.218Z,983.94
2023-03-23T09:41:35.963Z,983.91
2023-03-23T09:42:37.743Z,983.85
2023-03-23T09:43:39.472Z,983.95
2023-03-23T09:44:41.157Z,983.95
2023-03-23T09:45:43.197Z,983.94
2023-03-23T09:46:44.641Z,984.02
2023-03-23T09:47:46.392Z,984
2023-03-23T09:48:48.088Z,984.01
2023-03-23T09:49:49.890Z,984.02
2023-03-23T09:50:51.600Z,984.03
2023-03-23T09:51:53.333Z,984
2023-03-23T09:52:55.061Z,983.98
2023-03-23T09:53:56.764Z,983.98
2023-03-23T09:54:58.550Z,983.99
2023-03-23T09:56:00.232Z,984
2023-03-23T09:57:01.966Z,984.01
2023-03-23T09:58:03.553Z,984.02
2023-03-23T09:59:05.265Z,983.97
2023-03-23T10:00:07.012Z,984
2023-03-23T10:01:08.775Z,983.92
2023-03-23T10:02:10.510Z,983.94
2023-03-23T10:03:13.480Z,984.02
2023-03-23T10:04:13.982Z,984.03
2023-03-23T10:05:15.731Z,984.05
2023-03-23T10:06:17.476Z,984.06
2023-03-23T10:07:19.232Z,984.03
2023-03-23T10:08:20.913Z,984.09
2023-03-23T10:09:22.627Z,984.01
2023-03-23T10:10:24.500Z,984
2023-03-23T10:11:26.114Z,983.98
2023-03-23T10:12:27.838Z,984
2023-03-23T10:13:29.592Z,984.07
2023-03-23T10:14:31.306Z,984.03
2023-03-23T10:15:33.064Z,984.03
2023-03-23T10:16:34.772Z,984.08
2023-03-23T10:17:36.568Z,984.09
2023-03-23T10:18:38.262Z,984.08
2023-03-23T10:19:40.035Z,984.1
2023-03-23T10:20:41.701Z,984.1
2023-03-23T10:21:43.434Z,984.12
2023-03-23T10:22:45.182Z,984.09
2023-03-23T10:23:46.915Z,984.07
2023-03-23T10:24:48.648Z,984.13
2023-03-23T10:25:50.424Z,984.09
2023-03-23T10:26:52.123Z,984.15
2023-03-23T10:27:53.873Z,984.14
2023-03-23T10:28:55.573Z,984.16
2023-03-23T10:29:57.345Z,984.15
2023-03-23T10:30:59.090Z,984.15
2023-03-23T10:32:00.792Z,984.15
2023-03-23T10:33:02.532Z,984.05
2023-03-23T10:34:04.287Z,984.11
2023-03-23T10:35:06.037Z,984.12
2023-03-23T10:36:07.783Z,984.01
2023-03-23T10:37:09.501Z,984.03
2023-03-23T10:38:11.214Z,984.09
2023-03-23T10:39:12.942Z,984.11
2023-03-23T10:40:14.699Z,984.11
2023-03-23T10:41:16.400Z,984.16
2023-03-23T10:42:18.148Z,984.16
2023-03-23T10:43:19.883Z,984.15
2023-03-23T10:44:21.598Z,984.14
2023-03-23T10:45:23.386Z,984.16
2023-03-23T10:46:31.911Z,984.19
2023-03-23T10:47:26.839Z,984.15
2023-03-23T10:48:28.554Z,984.15
2023-03-23T10:49:30.287Z,984.19
2023-03-23T10:50:32.013Z,984.16
2023-03-23T10:51:33.734Z,984.12
2023-03-23T10:52:35.472Z,984.14
2023-03-23T10:53:37.205Z,984.09
2023-03-23T10:54:38.940Z,984.06
2023-03-23T10:55:40.896Z,984.12
2023-03-23T10:56:58.144Z,984.17
2023-03-23T10:57:44.136Z,984.19
2023-03-23T10:58:45.876Z,984.11
2023-03-23T10:59:47.650Z,984.15
2023-03-23T11:00:49.594Z,984.13
2023-03-23T11:01:51.075Z,984.1
2023-03-23T11:02:52.818Z,984.04
2023-03-23T11:03:54.559Z,984.08
2023-03-23T11:04:56.319Z,984.08
2023-03-23T11:05:58.054Z,984.1
2023-03-23T11:06:59.753Z,984.1
2023-03-23T11:08:01.490Z,984.02
2023-03-23T11:09:03.255Z,984.02
2023-03-23T11:10:04.959Z,984.09
2023-03-23T11:11:06.673Z,984.02
2023-03-23T11:12:08.659Z,984.06
2023-03-23T11:13:10.146Z,984.11
2023-03-23T11:14:10.763Z,984.09
2023-03-23T11:15:13.577Z,984.2
2023-03-23T11:16:15.304Z,984.25
2023-03-23T11:17:17.069Z,984.18
2023-03-23T11:18:18.827Z,984.2
2023-03-23T11:20:22.256Z,984.16
2023-03-23T11:21:24.005Z,984.17
2023-03-23T11:22:25.735Z,984.27
2023-03-23T11:23:27.441Z,984.22
2023-03-23T11:24:29.180Z,984.21
2023-03-23T11:25:30.927Z,984.3
2023-03-23T11:26:32.661Z,984.32
2023-03-23T11:27:34.465Z,984.33
2023-03-23T11:28:36.117Z,984.36
2023-03-23T11:29:37.879Z,984.44
2023-03-23T11:30:40.567Z,984.43
2023-03-23T11:31:41.375Z,984.4
2023-03-23T11:32:43.057Z,984.36
2023-03-23T11:33:44.790Z,984.4
2023-03-23T11:34:46.540Z,984.39
2023-03-23T11:35:48.295Z,984.36
2023-03-23T11:36:50.035Z,984.23
2023-03-23T11:37:51.724Z,984.3
2023-03-23T11:38:53.467Z,984.32
2023-03-23T11:39:55.252Z,984.3
2023-03-23T11:40:56.938Z,984.28
2023-03-23T11:42:09.067Z,984.3
2023-03-23T11:43:00.397Z,984.24
2023-03-23T11:44:02.138Z,984.25
2023-03-23T11:45:03.877Z,984.3
2023-03-23T11:46:05.619Z,984.37
2023-03-23T11:47:07.331Z,984.32
2023-03-23T11:48:09.125Z,984.38
2023-03-23T11:49:23.262Z,984.43
2023-03-23T11:50:12.542Z,984.29
2023-03-23T11:51:14.265Z,984.25
2023-03-23T11:52:16.038Z,984.34
2023-03-23T11:53:17.731Z,984.24
2023-03-23T11:54:19.466Z,984.28
2023-03-23T11:55:21.229Z,984.31
2023-03-23T11:56:22.993Z,984.28
2023-03-23T11:57:24.669Z,984.24
2023-03-23T11:58:26.395Z,984.21
2023-03-23T11:59:28.156Z,984.23
2023-03-23T12:00:29.902Z,984.22
2023-03-23T12:01:31.646Z,984.21
2023-03-23T12:02:33.404Z,984.17
2023-03-23T12:03:35.099Z,984.14
2023-03-23T12:04:36.863Z,984.14
2023-03-23T12:05:38.568Z,984.1
2023-03-23T12:06:40.306Z,984.08
2023-03-23T12:07:42.043Z,984.07
2023-03-23T12:08:43.794Z,984.1
2023-03-23T12:09:45.495Z,984.04
2023-03-23T12:11:48.994Z,983.96
2023-03-23T12:12:50.685Z,983.94
2023-03-23T12:13:53.330Z,983.97
2023-03-23T12:14:54.166Z,983.94
2023-03-23T12:15:55.905Z,983.97
2023-03-23T12:16:57.620Z,983.96
2023-03-23T12:17:59.364Z,983.86
2023-03-23T12:19:01.088Z,983.93
2023-03-23T12:20:02.827Z,983.88
2023-03-23T12:21:04.575Z,983.93
2023-03-23T12:22:06.293Z,983.93
2023-03-23T12:23:08.104Z,983.92
2023-03-23T12:24:09.778Z,983.92
2023-03-23T12:25:11.545Z,983.88
2023-03-23T12:26:13.241Z,983.89
2023-03-23T12:27:14.963Z,983.82
2023-03-23T12:28:16.712Z,983.87
2023-03-23T12:29:18.434Z,983.71
2023-03-23T12:30:20.204Z,983.74
2023-03-23T12:31:21.904Z,983.66
2023-03-23T12:32:23.689Z,983.65
2023-03-23T12:33:25.396Z,983.55
2023-03-23T12:34:27.116Z,983.54
2023-03-23T12:35:28.874Z,983.46
2023-03-23T12:36:30.627Z,983.57
2023-03-23T12:37:32.311Z,983.58
2023-03-23T12:38:34.063Z,983.68
2023-03-23T12:39:35.800Z,983.67
2023-03-23T12:40:37.553Z,983.73
2023-03-23T12:41:39.263Z,983.72
2023-03-23T12:42:41.013Z,983.75
2023-03-23T12:43:42.746Z,983.74
2023-03-23T12:44:44.457Z,983.72
2023-03-23T12:45:46.202Z,983.7
2023-03-23T12:46:49.606Z,983.68
2023-03-23T12:47:49.713Z,983.76
2023-03-23T12:48:51.541Z,983.73
2023-03-23T12:49:53.177Z,983.73
2023-03-23T12:50:54.911Z,983.75
2023-03-23T12:51:58.099Z,983.77
2023-03-23T12:52:58.356Z,983.81
2023-03-23T12:54:00.078Z,983.76
2023-03-23T12:55:01.765Z,983.8